createdAt,value
2023-03-31T00:00:25.625Z,53.17
2023-03-31T00:03:11.751Z,20.88
2023-03-31T00:05:39.844Z,21.63
2023-03-31T00:08:07.368Z,22.15
2023-03-31T00:10:35.069Z,20.23
2023-03-31T00:13:02.650Z,19.92
2023-03-31T00:15:29.953Z,19.85
2023-03-31T00:18:00.551Z,19.88
2023-03-31T00:20:28.527Z,29.52
2023-03-31T00:22:57.768Z,20.70
2023-03-31T00:25:25.540Z,20.88
2023-03-31T00:27:52.895Z,19.90
2023-03-31T00:30:20.635Z,20.08
2023-03-31T00:32:47.791Z,21.13
2023-03-31T00:35:15.189Z,19.55
2023-03-31T00:37:43.416Z,19.55
2023-03-31T00:40:12.134Z,32.40
2023-03-31T00:42:44.088Z,23.85
2023-03-31T00:45:14.910Z,19.98
2023-03-31T00:48:10.435Z,22.15
2023-03-31T00:50:47.523Z,20.38
2023-03-31T00:53:16.964Z,20.38
2023-03-31T00:55:47.783Z,21.20
2023-03-31T00:58:20.181Z,20.52
2023-03-31T01:00:49.209Z,24.45
2023-03-31T01:03:16.674Z,23.85
2023-03-31T01:05:50.307Z,21.17
2023-03-31T01:08:19.358Z,21.70
2023-03-31T01:10:54.356Z,21.85
2023-03-31T01:13:21.966Z,21.52
2023-03-31T01:15:49.623Z,21.77
2023-03-31T01:18:21.676Z,21.88
2023-03-31T01:21:30.606Z,35.05
2023-03-31T01:24:39.249Z,21.90
2023-03-31T01:27:26.307Z,23.02
2023-03-31T01:30:31.903Z,21.75
2023-03-31T01:33:34.534Z,21.83
2023-03-31T01:36:14.614Z,21.73
2023-03-31T01:38:53.802Z,21.90
2023-03-31T01:41:33.538Z,27.90
2023-03-31T01:44:41.200Z,24.98
2023-03-31T01:47:29.162Z,38.60
2023-03-31T01:50:05.931Z,26.25
2023-03-31T01:52:44.173Z,25.48
2023-03-31T01:55:20.884Z,25.38
2023-03-31T01:58:11.639Z,24.88
2023-03-31T02:00:42.813Z,25.42
2023-03-31T02:03:17.104Z,26.48
2023-03-31T02:05:49.380Z,26.30
2023-03-31T02:08:22.494Z,57.28
2023-03-31T02:10:50.619Z,25.75
2023-03-31T02:13:19.432Z,28.00
2023-03-31T02:15:51.387Z,28.10
2023-03-31T02:18:22.797Z,30.10
2023-03-31T02:20:50.841Z,30.17
2023-03-31T02:23:20.734Z,32.45
2023-03-31T02:25:53.924Z,31.58
2023-03-31T02:28:24.085Z,37.22
2023-03-31T02:31:13.686Z,35.42
2023-03-31T02:33:41.395Z,36.97
2023-03-31T02:36:09.328Z,37.22
2023-03-31T02:38:40.763Z,37.03
2023-03-31T02:41:08.452Z,37.97
2023-03-31T02:43:35.527Z,39.35
2023-03-31T02:46:02.809Z,39.40
2023-03-31T02:48:37.244Z,48.58
2023-03-31T02:51:08.767Z,41.00
2023-03-31T02:53:46.345Z,41.80
2023-03-31T02:56:44.328Z,40.47
2023-03-31T02:59:33.055Z,40.17
2023-03-31T03:02:00.838Z,38.47
2023-03-31T03:05:05.661Z,39.05
2023-03-31T03:07:39.732Z,38.50
2023-03-31T03:10:21.166Z,41.00
2023-03-31T03:12:58.881Z,39.78
2023-03-31T03:15:44.981Z,43.33
2023-03-31T03:18:12.821Z,41.70
2023-03-31T03:20:42.908Z,42.45
2023-03-31T03:23:10.365Z,43.45
2023-03-31T03:25:37.839Z,41.50
2023-03-31T03:28:05.116Z,76.30
2023-03-31T03:30:32.127Z,44.95
2023-03-31T03:32:59.488Z,43.72
2023-03-31T03:35:26.538Z,48.05
2023-03-31T03:37:53.791Z,46.38
2023-03-31T03:40:21.002Z,45.65
2023-03-31T03:42:48.347Z,46.25
2023-03-31T03:45:15.483Z,47.28
2023-03-31T03:47:42.930Z,63.47
2023-03-31T03:50:10.484Z,49.35
2023-03-31T03:52:37.847Z,46.08
2023-03-31T03:55:05.762Z,47.85
2023-03-31T03:57:33.057Z,49.38
2023-03-31T04:00:00.158Z,47.42
2023-03-31T04:02:28.915Z,46.45
2023-03-31T04:04:56.074Z,44.50
2023-03-31T04:07:23.385Z,60.92
2023-03-31T04:09:50.458Z,100.72
2023-03-31T04:12:17.728Z,71.90
2023-03-31T04:14:44.679Z,49.22
2023-03-31T04:17:16.048Z,46.75
2023-03-31T04:19:43.142Z,45.42
2023-03-31T04:22:11.838Z,46.55
2023-03-31T04:24:38.919Z,45.90
2023-03-31T04:27:07.541Z,47.45
2023-03-31T04:29:37.314Z,47.50
2023-03-31T04:32:04.880Z,68.78
2023-03-31T04:34:35.615Z,49.10
2023-03-31T04:37:03.965Z,45.45
2023-03-31T04:39:34.713Z,45.63
2023-03-31T04:42:02.144Z,46.45
2023-03-31T04:44:29.361Z,48.03
2023-03-31T04:46:56.691Z,47.92
2023-03-31T04:49:23.712Z,47.17
2023-03-31T04:51:51.161Z,55.75
2023-03-31T04:54:18.377Z,49.25
2023-03-31T04:56:46.623Z,45.92
2023-03-31T04:59:13.724Z,43.60
2023-03-31T05:01:45.067Z,41.33
2023-03-31T05:04:12.365Z,40.15
2023-03-31T05:06:39.780Z,41.38
2023-03-31T05:09:07.276Z,37.60
2023-03-31T05:11:34.637Z,41.00
2023-03-31T05:14:01.655Z,39.05
2023-03-31T05:16:29.087Z,34.70
2023-03-31T05:18:56.169Z,33.85
2023-03-31T05:21:23.959Z,33.88
2023-03-31T05:23:51.084Z,33.25
2023-03-31T05:26:18.537Z,54.50
2023-03-31T05:28:45.766Z,55.38
2023-03-31T05:31:14.636Z,32.25
2023-03-31T05:33:42.331Z,29.40
2023-03-31T05:36:14.216Z,30.50
2023-03-31T05:38:41.634Z,29.23
2023-03-31T05:41:09.843Z,31.33
2023-03-31T05:43:37.779Z,29.23
2023-03-31T05:46:06.688Z,28.70
2023-03-31T05:48:34.234Z,29.83
2023-03-31T05:51:02.183Z,28.88
2023-03-31T05:53:29.510Z,27.02
2023-03-31T05:55:58.730Z,28.33
2023-03-31T05:58:26.283Z,27.58
2023-03-31T06:01:08.910Z,28.15
2023-03-31T06:03:38.677Z,26.98
2023-03-31T06:06:07.895Z,26.95
2023-03-31T06:08:36.199Z,25.55
2023-03-31T06:11:11.747Z,27.77
2023-03-31T06:13:39.812Z,26.48
2023-03-31T06:16:07.765Z,27.42
2023-03-31T06:18:36.234Z,26.95
2023-03-31T06:21:04.415Z,25.58
2023-03-31T06:23:31.842Z,23.80
2023-03-31T06:26:04.430Z,24.27
2023-03-31T06:28:31.366Z,22.85
2023-03-31T06:31:03.305Z,22.42
2023-03-31T06:33:31.196Z,23.33
2023-03-31T06:35:59.653Z,23.05
2023-03-31T06:38:27.675Z,20.95
2023-03-31T06:40:54.950Z,22.00
2023-03-31T06:43:22.155Z,19.85
2023-03-31T06:45:51.725Z,20.85
2023-03-31T06:48:20.601Z,20.27
2023-03-31T06:50:47.926Z,25.65
2023-03-31T06:53:14.848Z,18.95
2023-03-31T06:55:42.255Z,19.92
2023-03-31T06:58:09.527Z,18.92
2023-03-31T07:00:36.791Z,19.85
2023-03-31T07:03:04.709Z,18.92
2023-03-31T07:05:32.178Z,17.52
2023-03-31T07:07:59.820Z,20.23
2023-03-31T07:10:29.969Z,27.85
2023-03-31T07:12:57.340Z,19.92
2023-03-31T07:15:25.725Z,18.52
2023-03-31T07:18:02.671Z,17.25
2023-03-31T07:20:31.094Z,18.48
2023-03-31T07:22:58.213Z,17.08
2023-03-31T07:25:25.943Z,16.33
2023-03-31T07:27:53.174Z,15.35
2023-03-31T07:30:21.055Z,16.75
2023-03-31T07:32:50.296Z,11.30
2023-03-31T07:35:18.624Z,11.73
2023-03-31T07:37:47.324Z,13.40
2023-03-31T07:40:21.222Z,11.75
2023-03-31T07:42:49.525Z,10.98
2023-03-31T07:45:17.220Z,12.82
2023-03-31T07:47:46.524Z,10.30
2023-03-31T07:50:15.664Z,13.38
2023-03-31T07:52:44.739Z,14.00
2023-03-31T07:55:14.139Z,29.42
2023-03-31T07:57:42.308Z,10.57
2023-03-31T08:00:12.611Z,11.82
2023-03-31T08:05:11.520Z,11.45
2023-03-31T08:07:40.249Z,9.85
2023-03-31T08:10:09.987Z,10.25
2023-03-31T08:12:37.074Z,11.07
2023-03-31T08:15:05.360Z,11.80
2023-03-31T08:17:32.558Z,11.55
2023-03-31T08:20:03.773Z,10.10
2023-03-31T08:22:33.413Z,9.40
2023-03-31T08:25:00.782Z,8.55
2023-03-31T08:27:27.907Z,8.25
2023-03-31T08:29:55.196Z,8.43
2023-03-31T08:32:24.240Z,9.13
2023-03-31T08:34:51.718Z,9.70
2023-03-31T08:37:18.904Z,8.98
2023-03-31T08:39:46.267Z,8.02
2023-03-31T08:42:16.217Z,8.32
2023-03-31T08:45:04.258Z,7.35
2023-03-31T08:47:32.792Z,6.45
2023-03-31T08:50:07.554Z,6.57
2023-03-31T08:53:01.912Z,7.20
2023-03-31T08:55:36.369Z,15.25
2023-03-31T08:58:05.844Z,6.68
2023-03-31T09:00:41.182Z,7.30
2023-03-31T09:03:29.366Z,7.70
2023-03-31T09:06:02.309Z,6.80
2023-03-31T09:08:37.739Z,5.38
2023-03-31T09:11:40.919Z,5.32
2023-03-31T09:14:32.605Z,6.70
2023-03-31T09:17:15.454Z,9.07
2023-03-31T09:19:49.020Z,7.35
2023-03-31T09:22:20.776Z,8.60
2023-03-31T09:24:56.384Z,8.65
2023-03-31T09:27:26.224Z,8.88
2023-03-31T09:29:53.936Z,9.43
2023-03-31T09:32:24.125Z,8.10
2023-03-31T09:34:57.550Z,14.77
2023-03-31T09:37:27.390Z,74.47
2023-03-31T09:39:54.392Z,36.22
2023-03-31T09:42:21.694Z,9.13
2023-03-31T09:44:52.308Z,9.63
2023-03-31T09:47:25.957Z,10.95
2023-03-31T09:49:53.616Z,10.52
2023-03-31T09:52:31.060Z,10.73
2023-03-31T09:55:36.092Z,9.70
2023-03-31T09:58:08.593Z,11.23
2023-03-31T10:00:36.294Z,11.45
2023-03-31T10:03:07.881Z,10.32
2023-03-31T10:05:38.013Z,9.88
2023-03-31T10:08:12.042Z,10.75
2023-03-31T10:10:39.075Z,11.82
2023-03-31T10:13:10.875Z,8.93
2023-03-31T10:15:40.986Z,8.13
2023-03-31T10:18:15.154Z,9.27
2023-03-31T10:20:50.787Z,9.90
2023-03-31T10:23:27.771Z,8.63
2023-03-31T10:25:54.859Z,8.35
2023-03-31T10:28:22.809Z,8.18
2023-03-31T10:30:56.003Z,8.35
2023-03-31T10:33:26.018Z,7.43
2023-03-31T10:35:58.208Z,8.45
2023-03-31T10:38:37.843Z,9.10
2023-03-31T10:41:05.336Z,9.20
2023-03-31T10:43:42.315Z,8.48
2023-03-31T10:46:09.983Z,10.18
2023-03-31T10:48:41.115Z,9.35
2023-03-31T10:51:19.656Z,7.70
2023-03-31T10:53:49.303Z,7.70
2023-03-31T10:56:22.986Z,7.57
2023-03-31T10:59:10.268Z,13.70
2023-03-31T11:02:34.696Z,8.73
2023-03-31T11:05:23.041Z,8.43
2023-03-31T11:08:05.852Z,8.55
2023-03-31T11:10:48.510Z,7.28
2023-03-31T11:13:40.452Z,6.25
2023-03-31T11:16:35.305Z,5.88
2023-03-31T11:19:05.891Z,25.15
2023-03-31T11:21:51.208Z,10.60
2023-03-31T11:24:23.615Z,5.20
2023-03-31T11:27:11.032Z,3.78
2023-03-31T11:29:41.017Z,5.05
2023-03-31T11:32:40.876Z,4.35
2023-03-31T11:35:38.792Z,5.10
2023-03-31T11:38:16.016Z,5.35
2023-03-31T11:40:58.300Z,8.90
2023-03-31T11:43:42.057Z,6.18
2023-03-31T11:46:09.499Z,5.47
2023-03-31T11:48:46.155Z,7.38
2023-03-31T11:51:31.897Z,6.22
2023-03-31T11:54:00.435Z,8.80
2023-03-31T11:56:34.012Z,6.50
2023-03-31T11:59:03.181Z,27.90
2023-03-31T12:01:40.705Z,14.45
2023-03-31T12:04:11.121Z,8.30
2023-03-31T12:06:42.661Z,5.30
2023-03-31T12:09:31.981Z,5.68
2023-03-31T12:12:21.036Z,7.20
2023-03-31T12:15:11.529Z,7.45
2023-03-31T12:17:41.744Z,8.48
2023-03-31T12:20:26.159Z,15.55
2023-03-31T12:22:54.769Z,9.30
2023-03-31T12:25:28.554Z,6.13
2023-03-31T12:27:56.604Z,5.93
2023-03-31T12:30:37.627Z,5.30
2023-03-31T12:33:10.932Z,4.97
2023-03-31T12:35:51.950Z,4.75
2023-03-31T12:38:54.988Z,7.95
2023-03-31T12:41:51.306Z,6.45
2023-03-31T12:44:38.676Z,6.30
2023-03-31T12:47:18.785Z,4.88
2023-03-31T12:50:13.794Z,5.22
2023-03-31T12:52:52.660Z,5.05
2023-03-31T12:55:22.822Z,6.93
2023-03-31T12:57:50.369Z,11.27
2023-03-31T13:00:24.492Z,12.60
2023-03-31T13:03:30.423Z,6.68
2023-03-31T13:05:57.511Z,4.90
2023-03-31T13:08:49.878Z,4.80
2023-03-31T13:11:18.614Z,5.32
2023-03-31T13:14:00.874Z,4.15
2023-03-31T13:16:29.869Z,3.92
2023-03-31T13:18:57.721Z,13.57
2023-03-31T13:21:25.211Z,5.95
2023-03-31T13:23:53.911Z,3.63
2023-03-31T13:26:33.027Z,3.03
2023-03-31T13:29:15.699Z,3.17
2023-03-31T13:32:26.257Z,3.92
2023-03-31T13:35:04.582Z,3.75
2023-03-31T13:37:45.219Z,5.00
2023-03-31T13:40:24.769Z,13.77
2023-03-31T13:43:00.887Z,6.10
2023-03-31T13:45:55.750Z,4.00
2023-03-31T13:48:39.770Z,5.38
2023-03-31T13:51:16.034Z,4.28
2023-03-31T13:54:19.798Z,3.13
2023-03-31T13:57:24.406Z,4.47
2023-03-31T14:00:19.250Z,20.90
2023-03-31T14:03:01.725Z,4.78
2023-03-31T14:05:43.475Z,5.40
2023-03-31T14:08:15.063Z,4.57
2023-03-31T14:10:43.210Z,4.60
2023-03-31T14:13:18.873Z,4.10
2023-03-31T14:15:55.082Z,4.45
2023-03-31T14:18:28.665Z,12.40
2023-03-31T14:21:11.446Z,13.85
2023-03-31T14:23:39.029Z,6.30
2023-03-31T14:26:18.028Z,6.22
2023-03-31T14:29:12.669Z,6.35
2023-03-31T14:32:16.769Z,6.57
2023-03-31T14:35:20.027Z,5.20
2023-03-31T14:37:49.034Z,5.10
2023-03-31T14:40:17.318Z,15.30
2023-03-31T14:42:49.750Z,11.38
2023-03-31T14:45:31.540Z,6.63
2023-03-31T14:48:04.762Z,6.97
2023-03-31T14:50:35.727Z,5.88
2023-03-31T14:53:04.951Z,6.68
2023-03-31T14:55:54.180Z,6.63
2023-03-31T14:58:30.943Z,4.95
2023-03-31T15:00:59.101Z,9.07
2023-03-31T15:03:26.578Z,7.90
2023-03-31T15:06:01.313Z,6.82
2023-03-31T15:08:30.584Z,5.18
2023-03-31T15:11:11.975Z,6.40
2023-03-31T15:16:33.179Z,9.40
2023-03-31T15:19:04.945Z,21.38
2023-03-31T15:21:37.637Z,7.03
2023-03-31T15:24:05.607Z,7.05
2023-03-31T15:26:41.527Z,7.18
2023-03-31T15:29:38.527Z,33.28
2023-03-31T15:32:13.101Z,11.25
2023-03-31T15:34:43.427Z,4.68
2023-03-31T15:37:11.261Z,3.13
2023-03-31T15:39:38.999Z,3.80
2023-03-31T15:42:07.723Z,3.20
2023-03-31T15:44:44.407Z,2.70
2023-03-31T15:47:18.609Z,2.78
2023-03-31T15:49:51.584Z,5.35
2023-03-31T15:52:41.244Z,3.70
2023-03-31T15:55:23.858Z,3.10
2023-03-31T15:57:51.891Z,3.35
2023-03-31T16:00:34.247Z,3.50
2023-03-31T16:03:02.900Z,3.00
2023-03-31T16:08:44.819Z,3.10
2023-03-31T16:11:15.962Z,6.88
2023-03-31T16:13:46.841Z,44.05
2023-03-31T16:16:15.976Z,16.05
2023-03-31T16:18:47.445Z,10.40
2023-03-31T16:21:16.442Z,6.32
2023-03-31T16:23:45.516Z,5.97
2023-03-31T16:26:13.268Z,4.90
2023-03-31T16:28:40.659Z,5.88
2023-03-31T16:31:34.352Z,6.72
2023-03-31T16:34:04.042Z,7.57
2023-03-31T16:36:31.469Z,208.93
2023-03-31T16:39:01.863Z,258.95
2023-03-31T16:41:29.828Z,40.83
2023-03-31T16:43:57.224Z,7.25
2023-03-31T16:46:25.124Z,4.80
2023-03-31T16:48:52.982Z,100.05
2023-03-31T16:51:20.462Z,109.63
2023-03-31T16:53:48.367Z,85.45
2023-03-31T16:56:15.774Z,71.95
2023-03-31T16:58:43.835Z,18.63
2023-03-31T17:01:11.681Z,29.90
2023-03-31T17:03:41.696Z,22.90
2023-03-31T17:06:12.058Z,29.00
2023-03-31T17:08:39.877Z,34.03
2023-03-31T17:11:11.062Z,12.30
2023-03-31T17:13:39.265Z,21.15
2023-03-31T17:16:18.479Z,58.20
2023-03-31T17:18:53.040Z,157.32
2023-03-31T17:21:20.623Z,64.15
2023-03-31T17:23:48.155Z,18.85
2023-03-31T17:26:16.493Z,21.55
2023-03-31T17:28:44.018Z,18.85
2023-03-31T17:31:18.468Z,9.85
2023-03-31T17:33:46.346Z,5.00
2023-03-31T17:36:13.403Z,42.72
2023-03-31T17:38:41.729Z,51.65
2023-03-31T17:41:13.507Z,17.65
2023-03-31T17:43:44.978Z,14.52
2023-03-31T17:46:12.997Z,15.10
2023-03-31T17:48:41.454Z,6.60
2023-03-31T17:51:10.890Z,5.13
2023-03-31T17:53:39.824Z,49.72
2023-03-31T17:56:06.876Z,24.83
2023-03-31T17:58:34.198Z,29.05
2023-03-31T18:01:05.037Z,25.75
2023-03-31T18:03:32.576Z,38.17
2023-03-31T18:06:07.679Z,251.93
2023-03-31T18:08:35.349Z,102.47
2023-03-31T18:11:04.995Z,44.75
2023-03-31T18:13:34.781Z,42.33
2023-03-31T18:16:02.702Z,125.90
2023-03-31T18:18:30.094Z,246.68
2023-03-31T18:20:57.568Z,257.08
2023-03-31T18:23:24.918Z,139.98
2023-03-31T18:25:52.782Z,72.28
2023-03-31T18:28:20.987Z,109.10
2023-03-31T18:30:48.203Z,140.25
2023-03-31T18:33:15.832Z,538.30
2023-03-31T18:35:42.930Z,489.45
2023-03-31T18:38:10.362Z,136.38
2023-03-31T18:40:37.760Z,108.57
2023-03-31T18:43:05.899Z,167.05
2023-03-31T18:45:33.093Z,66.85
2023-03-31T18:48:00.796Z,92.47
2023-03-31T18:50:27.891Z,721.00
2023-03-31T18:52:55.301Z,722.70
2023-03-31T18:55:22.451Z,196.95
2023-03-31T18:57:50.393Z,124.88
2023-03-31T19:00:19.002Z,122.82
2023-03-31T19:02:46.837Z,199.13
2023-03-31T19:05:13.977Z,90.65
2023-03-31T19:07:41.633Z,104.57
2023-03-31T19:10:09.338Z,77.57
2023-03-31T19:12:36.703Z,44.00
2023-03-31T19:15:03.988Z,54.05
2023-03-31T19:17:31.475Z,78.30
2023-03-31T19:19:58.633Z,507.20
2023-03-31T19:22:27.794Z,540.50
2023-03-31T19:24:54.865Z,116.53
2023-03-31T19:27:23.102Z,73.40
2023-03-31T19:29:50.562Z,121.07
2023-03-31T19:32:18.037Z,73.20
2023-03-31T19:34:46.423Z,66.15
2023-03-31T19:37:13.866Z,66.18
2023-03-31T19:39:40.992Z,89.63
2023-03-31T19:42:08.307Z,149.63
2023-03-31T19:44:35.797Z,32.22
2023-03-31T19:47:03.321Z,23.52
2023-03-31T19:49:30.371Z,21.85
2023-03-31T19:51:57.757Z,190.98
2023-03-31T19:54:24.780Z,80.15
2023-03-31T19:56:52.171Z,19.80
2023-03-31T19:59:19.272Z,20.25
2023-03-31T20:01:46.949Z,27.70
2023-03-31T20:04:17.302Z,24.75
2023-03-31T20:06:45.123Z,21.35
2023-03-31T20:09:12.849Z,17.45
2023-03-31T20:11:42.432Z,23.30
2023-03-31T20:14:10.718Z,21.40
2023-03-31T20:16:38.235Z,23.00
2023-03-31T20:19:06.243Z,33.22
2023-03-31T20:21:36.365Z,23.75
2023-03-31T20:24:03.686Z,22.05
2023-03-31T20:26:31.599Z,23.15
2023-03-31T20:29:01.955Z,17.70
2023-03-31T20:31:32.538Z,20.67
2023-03-31T20:33:59.797Z,21.85
2023-03-31T20:36:32.126Z,19.63
2023-03-31T20:39:00.285Z,22.45
2023-03-31T20:41:29.752Z,18.08
2023-03-31T20:43:57.035Z,18.95
2023-03-31T20:46:24.738Z,18.10
2023-03-31T20:48:55.138Z,15.48
2023-03-31T20:51:27.678Z,13.95
2023-03-31T20:53:55.305Z,14.35
2023-03-31T20:56:27.645Z,35.67
2023-03-31T20:58:57.788Z,21.25
2023-03-31T21:01:27.474Z,19.92
2023-03-31T21:03:55.102Z,17.00
2023-03-31T21:06:22.508Z,15.57
2023-03-31T21:08:53.804Z,22.88
2023-03-31T21:11:22.787Z,17.67
2023-03-31T21:13:50.501Z,25.65
2023-03-31T21:16:17.982Z,26.13
2023-03-31T21:18:45.003Z,28.08
2023-03-31T21:21:18.561Z,32.67
2023-03-31T21:23:46.760Z,42.42
2023-03-31T21:26:15.724Z,33.60
2023-03-31T21:28:43.531Z,26.10
2023-03-31T21:31:14.105Z,52.22
2023-03-31T21:33:42.840Z,73.90
2023-03-31T21:36:13.376Z,18.17
2023-03-31T21:38:40.644Z,17.88
2023-03-31T21:41:10.141Z,27.08
2023-03-31T21:43:37.364Z,28.15
2023-03-31T21:46:06.472Z,38.92
2023-03-31T21:48:34.610Z,28.70
2023-03-31T21:51:03.148Z,28.48
2023-03-31T21:53:31.171Z,22.08
2023-03-31T21:55:58.750Z,28.27
2023-03-31T21:58:28.652Z,23.70
2023-03-31T22:00:57.734Z,17.02
2023-03-31T22:03:28.677Z,24.42
2023-03-31T22:05:56.977Z,23.02
2023-03-31T22:08:24.928Z,27.63
2023-03-31T22:10:53.132Z,18.85
2023-03-31T22:13:21.445Z,17.55
2023-03-31T22:15:48.827Z,19.85
2023-03-31T22:18:17.129Z,11.70
2023-03-31T22:20:45.982Z,13.93
2023-03-31T22:23:13.388Z,13.32
2023-03-31T22:25:41.192Z,16.63
2023-03-31T22:28:09.170Z,13.30
2023-03-31T22:30:36.920Z,16.40
2023-03-31T22:33:04.236Z,18.38
2023-03-31T22:35:31.763Z,21.40
2023-03-31T22:37:58.949Z,15.07
2023-03-31T22:40:26.317Z,17.00
2023-03-31T22:42:54.903Z,15.23
2023-03-31T22:45:22.330Z,12.95
2023-03-31T22:47:49.377Z,10.70
2023-03-31T22:50:16.966Z,13.77
2023-03-31T22:52:45.497Z,15.50
2023-03-31T22:55:12.895Z,16.70
2023-03-31T22:57:40.187Z,83.22
2023-03-31T23:00:08.083Z,42.35
2023-03-31T23:02:35.089Z,32.10
2023-03-31T23:05:02.622Z,22.75
2023-03-31T23:07:30.423Z,24.70
2023-03-31T23:09:57.800Z,26.42
2023-03-31T23:12:25.993Z,20.13
2023-03-31T23:14:53.379Z,21.02
2023-03-31T23:17:20.795Z,21.45
2023-03-31T23:19:48.369Z,28.80
2023-03-31T23:22:15.710Z,21.88
2023-03-31T23:24:43.061Z,17.40
2023-03-31T23:27:10.764Z,19.15
2023-03-31T23:29:38.199Z,21.67
2023-03-31T23:32:05.661Z,24.35
2023-03-31T23:34:33.001Z,25.85
2023-03-31T23:37:00.018Z,54.70
2023-03-31T23:39:27.694Z,66.13
2023-03-31T23:41:54.644Z,34.60
2023-03-31T23:44:21.962Z,24.35
2023-03-31T23:46:48.935Z,24.38
2023-03-31T23:49:16.297Z,28.17
2023-03-31T23:51:43.245Z,25.38
2023-03-31T23:54:10.833Z,27.35
2023-03-31T23:56:37.958Z,28.15
2023-03-31T23:59:05.274Z,25.05
